Time;durP1;ratioP1;P1;durP2;ratioP2;P2;SDS_P1;SDS_P2;PMS_P1;PMS_P2;Temp;Humidity;BMP_temperature;BMP_pressure;BME280_temperature;BME280_humidity;BME280_pressure;Samples;Min_cycle;Max_cycle;Signal;HPM_P1;HPM_P2
2022/06/23 00:02:04;;;;;;;1999.90;999.90;;;;;;;21.79;100.00;94131.97;5051829;28;20185;-62
2022/06/23 00:04:48;;;;;;;1999.90;999.90;;;;;;;21.76;100.00;94121.84;5051828;28;20193;-58
2022/06/23 00:07:17;;;;;;;1999.90;999.90;;;;;;;21.75;100.00;94120.31;5052415;28;20235;-62
2022/06/23 00:09:45;;;;;;;1999.90;999.90;;;;;;;21.75;100.00;94114.75;5035061;28;20197;-63
2022/06/23 00:12:39;;;;;;;1999.90;999.90;;;;;;;21.76;100.00;94121.84;5035184;28;20271;-62
2022/06/23 00:15:07;;;;;;;1999.90;999.90;;;;;;;21.74;100.00;94131.94;5054981;28;20201;-61
2022/06/23 00:17:34;;;;;;;1999.90;999.90;;;;;;;21.74;100.00;94134.72;5038461;28;20189;-61
2022/06/23 00:20:09;;;;;;;1999.90;999.90;;;;;;;21.73;100.00;94145.09;5039067;28;20221;-61
2022/06/23 00:22:37;;;;;;;1999.90;999.90;;;;;;;21.65;100.00;94157.97;5056027;28;20185;-59
2022/06/23 00:25:05;;;;;;;1999.90;999.90;;;;;;;21.65;100.00;94138.50;5054826;28;20196;-62
2022/06/23 00:27:35;;;;;;;1999.90;999.90;;;;;;;21.61;100.00;94126.88;5055142;28;20253;-62
2022/06/23 00:30:05;;;;;;;1999.90;999.90;;;;;;;21.62;100.00;94117.28;5055151;28;20289;-62
2022/06/23 00:32:31;;;;;;;1999.90;999.90;;;;;;;21.62;100.00;94108.16;5055210;28;20308;-62
2022/06/23 00:34:59;;;;;;;1999.90;999.90;;;;;;;21.61;100.00;94104.66;5054654;28;20213;-63
2022/06/23 00:37:25;;;;;;;1999.90;999.90;;;;;;;21.57;100.00;94087.44;5055030;28;20225;-64
2022/06/23 00:40:05;;;;;;;1999.90;999.90;;;;;;;21.47;100.00;94038.97;5038092;28;20220;-60
2022/06/23 00:42:37;;;;;;;1999.90;999.90;;;;;;;21.30;100.00;94012.44;5054854;28;20262;-65
2022/06/23 00:45:11;;;;;;;1999.90;999.90;;;;;;;21.23;100.00;93960.94;5038031;28;20189;-65
2022/06/23 00:47:52;;;;;;;1999.90;999.90;;;;;;;21.22;100.00;93923.34;5038249;28;20192;-63
2022/06/23 00:50:18;;;;;;;1999.90;999.90;;;;;;;21.17;100.00;93888.00;5038320;28;20235;-63
2022/06/23 00:52:59;;;;;;;1999.90;999.90;;;;;;;21.17;100.00;93860.25;5037925;28;20193;-63
2022/06/23 00:55:34;;;;;;;1999.90;999.90;;;;;;;21.20;100.00;93853.63;5054866;28;20223;-63
2022/06/23 00:58:05;;;;;;;1999.90;999.90;;;;;;;21.22;100.00;93834.47;5037869;28;20185;-61
2022/06/23 01:00:38;;;;;;;1999.90;999.90;;;;;;;21.13;100.00;93837.50;5054704;28;20205;-64
2022/06/23 01:03:30;;;;;;;1999.90;999.90;;;;;;;21.00;100.00;93825.44;5054348;28;20190;-63
2022/06/23 01:06:14;;;;;;;1999.90;999.90;;;;;;;20.94;100.00;93802.50;5054875;28;20221;-63
2022/06/23 01:08:47;;;;;;;1999.90;999.90;;;;;;;20.96;100.00;93772.97;5054861;28;20210;-63
2022/06/23 01:11:33;;;;;;;1999.90;999.90;;;;;;;20.94;100.00;93767.16;5054117;28;20245;-62
2022/06/23 01:14:11;;;;;;;1999.90;999.90;;;;;;;20.94;100.00;93758.81;5038235;28;20190;-63
2022/06/23 01:16:47;;;;;;;1999.90;999.90;;;;;;;20.98;100.00;93756.53;5037488;28;20194;-58
2022/06/23 01:19:53;;;;;;;1999.90;999.90;;;;;;;20.99;100.00;93748.97;5054718;28;20193;-61
2022/06/23 01:22:39;;;;;;;1999.90;999.90;;;;;;;21.03;100.00;93747.44;5054235;28;20193;-61
2022/06/23 01:25:33;;;;;;;1999.90;999.90;;;;;;;21.03;100.00;93755.00;5037961;28;20178;-60
2022/06/23 01:28:09;;;;;;;1999.90;999.90;;;;;;;21.00;100.00;93762.34;5033705;28;20201;-61
2022/06/23 01:31:03;;;;;;;1999.90;999.90;;;;;;;21.01;100.00;93777.72;5054001;28;20193;-60
2022/06/23 01:33:37;;;;;;;1999.90;999.90;;;;;;;21.00;100.00;93767.91;5048121;28;20339;-60
2022/06/23 01:36:12;;;;;;;1999.90;999.90;;;;;;;20.88;100.00;93771.94;5053851;28;20185;-62
2022/06/23 01:38:37;;;;;;;1999.90;999.90;;;;;;;20.81;100.00;93760.59;5037501;28;20201;-65
2022/06/23 01:41:18;;;;;;;1999.90;999.90;;;;;;;20.79;100.00;93750.00;5036837;28;20196;-64
2022/06/23 01:43:58;;;;;;;1999.90;999.90;;;;;;;20.77;100.00;93744.22;5054055;28;20205;-65
2022/06/23 01:46:31;;;;;;;1999.90;999.90;;;;;;;20.75;100.00;93734.88;5054262;28;20253;-64
2022/06/23 01:49:04;;;;;;;1999.90;999.90;;;;;;;20.72;100.00;93720.00;5053542;28;20185;-64
2022/06/23 01:51:35;;;;;;;1999.90;999.90;;;;;;;20.71;100.00;93723.28;5053201;28;20233;-64
2022/06/23 01:54:12;;;;;;;1999.90;999.90;;;;;;;20.65;100.00;93720.53;5036658;28;20193;-61
2022/06/23 01:57:03;;;;;;;1999.90;999.90;;;;;;;20.57;100.00;93711.22;5037230;28;20181;-58
2022/06/23 01:59:38;;;;;;;1999.90;999.90;;;;;;;20.51;100.00;93693.84;5037049;28;20205;-58
2022/06/23 02:02:22;;;;;;;1999.90;999.90;;;;;;;20.52;100.00;93670.41;5036542;28;20197;-59
2022/06/23 02:04:47;;;;;;;1999.90;999.90;;;;;;;20.55;100.00;93666.59;5036635;28;20261;-58
2022/06/23 02:07:30;;;;;;;1999.90;999.90;;;;;;;20.59;100.00;93669.88;5036412;28;20280;-59
2022/06/23 02:10:25;;;;;;;1999.90;999.90;;;;;;;20.61;100.00;93681.19;5053256;28;20221;-59
2022/06/23 02:12:55;;;;;;;1999.90;999.90;;;;;;;20.55;100.00;93683.25;5053001;28;20243;-63
2022/06/23 02:15:29;;;;;;;1999.90;999.90;;;;;;;20.54;100.00;93673.41;5052923;28;20185;-64
2022/06/23 02:18:20;;;;;;;1999.90;999.90;;;;;;;20.59;100.00;93674.66;5036776;28;20193;-66
2022/06/23 02:21:04;;;;;;;1999.90;999.90;;;;;;;20.58;100.00;93671.13;5053280;28;20193;-65
2022/06/23 02:23:46;;;;;;;1999.90;999.90;;;;;;;20.53;100.00;93660.81;5036365;28;20190;-65
2022/06/23 02:26:23;;;;;;;1999.90;999.90;;;;;;;20.37;100.00;93641.44;5053007;28;20186;-64
2022/06/23 02:29:11;;;;;;;1999.90;999.90;;;;;;;20.44;100.00;93618.72;5053439;28;20189;-64
2022/06/23 02:31:52;;;;;;;1999.90;999.90;;;;;;;20.47;100.00;93598.28;5053474;28;20213;-61
2022/06/23 02:34:27;;;;;;;1999.90;999.90;;;;;;;20.45;100.00;93589.72;5036364;28;20305;-59
2022/06/23 02:37:27;;;;;;;1999.90;999.90;;;;;;;20.44;100.00;93594.53;5036175;28;20193;-60
2022/06/23 02:39:56;;;;;;;1999.90;999.90;;;;;;;20.49;100.00;93585.41;5052627;28;20220;-60
2022/06/23 02:42:22;;;;;;;1999.90;999.90;;;;;;;20.51;100.00;93582.91;5053029;28;20270;-59
2022/06/23 02:45:23;;;;;;;1999.90;999.90;;;;;;;20.50;100.00;93584.16;5036647;28;20194;-60
2022/06/23 02:48:04;;;;;;;1999.90;999.90;;;;;;;20.53;100.00;93591.44;5053273;28;20185;-59
2022/06/23 02:50:59;;;;;;;1999.90;999.90;;;;;;;20.50;100.00;93597.28;5036424;28;20201;-60
2022/06/23 02:54:03;;;;;;;1999.90;999.90;;;;;;;20.53;100.00;93591.44;5036675;28;20200;-62
2022/06/23 02:56:38;;;;;;;1999.90;999.90;;;;;;;20.49;100.00;93602.06;5034760;28;20205;-62
2022/06/23 02:59:29;;;;;;;1999.90;999.90;;;;;;;20.45;100.00;93590.47;5036290;28;20287;-62
2022/06/23 03:02:06;;;;;;;1999.90;999.90;;;;;;;20.39;100.00;93575.88;5036760;28;20190;-62
2022/06/23 03:04:44;;;;;;;1999.90;999.90;;;;;;;20.39;100.00;93567.56;5052738;28;20189;-62
2022/06/23 03:07:24;;;;;;;1999.90;999.90;;;;;;;20.38;100.00;93574.38;5052838;28;20220;-62
2022/06/23 03:10:03;;;;;;;1999.90;999.90;;;;;;;20.36;100.00;93571.34;5035916;28;20193;-64
2022/06/23 03:12:36;;;;;;;1999.90;999.90;;;;;;;20.37;100.00;93566.56;5052498;28;20221;-63
2022/06/23 03:15:10;;;;;;;1999.90;999.90;;;;;;;20.36;100.00;93554.69;5036248;28;20216;-64
2022/06/23 03:17:53;;;;;;;1999.90;999.90;;;;;;;20.34;100.00;93551.69;5036615;28;20185;-64
2022/06/23 03:20:18;;;;;;;1999.90;999.90;;;;;;;20.32;100.00;93548.66;5052966;28;20193;-64
2022/06/23 03:22:59;;;;;;;1999.90;999.90;;;;;;;20.28;100.00;93548.19;5036057;28;20189;-64
2022/06/23 03:25:33;;;;;;;1999.90;999.90;;;;;;;20.30;100.00;93536.59;5052823;28;20190;-62
2022/06/23 03:28:07;;;;;;;1999.90;999.90;;;;;;;20.31;100.00;93541.63;5052292;28;20184;-61
2022/06/23 03:30:33;;;;;;;1999.90;999.90;;;;;;;20.27;100.00;93535.59;5053168;28;20182;-62
2022/06/23 03:33:08;;;;;;;1999.90;999.90;;;;;;;20.23;100.00;93529.56;5035509;28;20238;-62
2022/06/23 03:35:41;;;;;;;1999.90;999.90;;;;;;;20.20;100.00;93532.59;5052442;28;20192;-62
2022/06/23 03:41:36;;;;;;;1999.90;999.90;;;;;;;20.23;100.00;93535.13;5035426;28;20201;-62
2022/06/23 03:44:04;;;;;;;1999.90;999.90;;;;;;;20.22;100.00;93566.88;5053898;28;20193;-63
2022/06/23 03:46:39;;;;;;;1999.90;999.90;;;;;;;20.20;100.00;93552.75;5053044;28;20182;-60
2022/06/23 03:49:39;;;;;;;1999.90;999.90;;;;;;;20.18;100.00;93554.53;5039327;28;20215;-60
2022/06/23 03:52:14;;;;;;;1999.90;999.90;;;;;;;20.18;100.00;93552.50;5039358;28;20217;-60
2022/06/23 03:54:59;;;;;;;1999.90;999.90;;;;;;;20.15;100.00;93561.09;5055837;28;20188;-60
2022/06/23 03:57:37;;;;;;;1999.90;999.90;;;;;;;20.13;100.00;93558.06;5038939;28;20190;-62
2022/06/23 04:00:22;;;;;;;1999.90;999.90;;;;;;;20.09;100.00;93558.31;5055820;28;20185;-60
2022/06/23 04:03:00;;;;;;;1999.90;999.90;;;;;;;20.05;100.00;93552.28;5039407;28;20190;-61
2022/06/23 04:05:59;;;;;;;1999.90;999.90;;;;;;;20.04;100.00;93539.69;5055659;28;20196;-59
2022/06/23 04:08:29;;;;;;;1999.90;999.90;;;;;;;20.00;100.00;93539.22;5055249;28;20199;-59
2022/06/23 04:10:59;;;;;;;1999.90;999.90;;;;;;;19.95;100.00;93512.25;5054882;28;20216;-59
2022/06/23 04:13:33;;;;;;;1999.90;999.90;;;;;;;19.94;100.00;93494.13;5055218;28;20185;-60
2022/06/23 04:16:10;;;;;;;1999.90;999.90;;;;;;;19.93;100.00;93489.09;5055065;28;20191;-59
2022/06/23 04:18:46;;;;;;;1999.90;999.90;;;;;;;19.98;100.00;93472.44;5055753;28;20185;-59
2022/06/23 04:21:18;;;;;;;1999.90;999.90;;;;;;;20.03;100.00;93476.47;5055516;28;20182;-58
2022/06/23 04:23:49;;;;;;;1999.90;999.90;;;;;;;20.08;100.00;93472.91;5055516;28;20224;-64
2022/06/23 04:26:25;;;;;;;1999.90;999.90;;;;;;;20.10;100.00;93476.69;5055234;28;20190;-63
2022/06/23 04:28:57;;;;;;;1999.90;999.90;;;;;;;20.17;100.00;93480.97;5054904;28;20186;-64
2022/06/23 04:31:42;;;;;;;1999.90;999.90;;;;;;;20.61;100.00;93492.53;5054690;28;20201;-64
2022/06/23 04:34:20;;;;;;;1999.90;999.90;;;;;;;21.32;100.00;93580.16;5055475;28;20205;-63
2022/06/23 04:36:46;;;;;;;1999.90;999.90;;;;;;;21.77;100.00;93723.06;5054975;28;20211;-63
2022/06/23 04:39:38;;;;;;;1999.90;999.90;;;;;;;21.76;100.00;93857.78;5055039;28;20289;-65
2022/06/23 04:42:20;;;;;;;1999.90;999.90;;;;;;;22.27;100.00;93898.69;5047992;28;20197;-59
2022/06/23 04:44:49;;;;;;;1999.90;999.90;;;;;;;22.89;100.00;93974.19;5055125;28;20192;-58
2022/06/23 04:47:20;;;;;;;1999.90;999.90;;;;;;;23.58;100.00;94123.19;5054953;28;20194;-58
2022/06/23 04:49:50;;;;;;;1999.90;999.90;;;;;;;24.25;100.00;94235.75;5054468;28;20200;-57
2022/06/23 04:52:35;;;;;;;1999.90;999.90;;;;;;;24.78;100.00;94349.59;5054584;28;20288;-58
2022/06/23 04:55:25;;;;;;;1999.90;999.90;;;;;;;25.36;100.00;94420.75;5037632;28;20228;-58
2022/06/23 04:58:01;;;;;;;1999.90;999.90;;;;;;;25.83;100.00;94474.44;5054164;28;20189;-59
2022/06/23 05:00:38;;;;;;;1999.90;999.90;;;;;;;25.83;100.00;94517.19;5054372;28;20190;-58
2022/06/23 05:03:17;;;;;;;1999.90;999.90;;;;;;;26.30;100.00;94568.91;5037931;28;20182;-59
2022/06/23 05:05:43;;;;;;;1999.90;999.90;;;;;;;27.02;100.00;94644.47;5054275;28;20181;-58
2022/06/23 05:08:17;;;;;;;1999.90;999.90;;;;;;;26.99;100.00;94684.78;5054121;28;20185;-59
2022/06/23 05:10:50;;;;;;;1999.90;999.90;;;;;;;27.09;100.00;94699.97;5054648;28;20196;-58
2022/06/23 05:13:20;;;;;;;1999.90;999.90;;;;;;;27.47;100.00;94740.09;5054554;28;20181;-58
2022/06/23 05:16:25;;;;;;;1999.90;999.90;;;;;;;27.31;100.00;94744.59;5054510;28;20178;-60
2022/06/23 05:18:53;;;;;;;1999.90;999.90;;;;;;;27.16;100.00;94733.03;5037387;28;20189;-62
2022/06/23 05:21:29;;;;;;;1999.90;999.90;;;;;;;27.43;100.00;94757.19;5053905;28;20244;-61
2022/06/23 05:24:06;;;;;;;1999.90;999.90;;;;;;;27.89;100.00;94787.78;5054153;28;20186;-62
2022/06/23 05:26:37;;;;;;;1999.90;999.90;;;;;;;28.43;100.00;94823.31;5053996;28;20186;-62
2022/06/23 05:29:35;;;;;;;1999.90;999.90;;;;;;;28.19;100.00;94850.16;5037684;28;20193;-63
2022/06/23 05:32:06;;;;;;;1999.90;999.90;;;;;;;28.51;100.00;94863.56;5049328;28;20308;-63
2022/06/23 05:34:42;;;;;;;1999.90;999.90;;;;;;;28.93;100.00;94885.91;5054003;28;20190;-61
2022/06/23 05:37:28;;;;;;;1999.90;999.90;;;;;;;28.80;100.00;94894.28;5101119;22;20255;-58
2022/06/23 05:40:11;;;;;;;1999.90;999.90;;;;;;;29.36;100.00;94919.47;5070007;28;20214;-60
2022/06/23 05:42:42;;;;;;;1999.90;999.90;;;;;;;29.28;100.00;94952.38;5070125;28;20217;-58
2022/06/23 05:45:26;;;;;;;1999.90;999.90;;;;;;;30.47;100.00;94986.56;5053886;28;20188;-59
2022/06/23 05:47:53;;;;;;;1999.90;999.90;;;;;;;31.03;100.00;95009.50;5053743;28;20236;-60
2022/06/23 05:50:24;;;;;;;1999.90;999.90;;;;;;;31.25;99.79;95025.97;5053634;28;20189;-59
2022/06/23 05:53:03;;;;;;;1999.90;999.90;;;;;;;31.44;98.57;95042.72;5053795;28;20298;-64
2022/06/23 05:55:41;;;;;;;1999.90;999.90;;;;;;;31.16;93.59;95051.78;5053492;28;20192;-59
2022/06/23 05:58:18;;;;;;;1999.90;999.90;;;;;;;31.22;93.31;95055.25;5070510;28;20190;-59
2022/06/23 06:00:56;;;;;;;1999.90;999.90;;;;;;;30.96;95.31;95052.50;5070272;28;20189;-59
2022/06/23 06:03:58;;;;;;;1999.90;999.90;;;;;;;30.19;96.91;95037.13;5069891;28;20217;-59
2022/06/23 06:06:23;;;;;;;1999.90;999.90;;;;;;;31.18;91.84;95063.31;5069531;28;20235;-59
2022/06/23 06:11:41;;;;;;;1999.90;999.90;;;;;;;31.13;88.86;95087.53;5053385;28;20216;-74
2022/06/23 06:14:06;;;;;;;1999.90;999.90;;;;;;;31.63;86.19;95089.25;5053173;28;20190;-64
2022/06/23 06:16:32;;;;;;;1999.90;999.90;;;;;;;32.25;80.76;95114.72;5053254;28;20205;-64
2022/06/23 06:18:58;;;;;;;1999.90;999.90;;;;;;;31.60;82.27;95112.94;5070114;28;20182;-63
2022/06/23 06:21:26;;;;;;;1999.90;999.90;;;;;;;31.59;83.61;95116.31;5052448;28;20192;-64
2022/06/23 06:23:51;;;;;;;1999.90;999.90;;;;;;;32.76;77.40;95141.94;5052543;28;20247;-64
2022/06/23 06:26:21;;;;;;;1999.90;999.90;;;;;;;32.36;77.06;95143.53;5053845;28;20170;-64
2022/06/23 06:28:48;;;;;;;1999.90;999.90;;;;;;;33.31;74.96;95142.47;5069608;28;20204;-58
2022/06/23 06:31:26;;;;;;;1999.90;999.90;;;;;;;34.03;67.99;95174.34;5069371;28;20205;-72
2022/06/23 06:34:14;;;;;;;1999.90;999.90;;;;;;;35.08;62.99;95182.97;5069697;28;20190;-65
2022/06/23 06:36:42;;;;;;;1999.90;999.90;;;;;;;35.84;58.68;95185.03;5069623;28;20189;-65
2022/06/23 06:39:23;;;;;;;1999.90;999.90;;;;;;;35.82;58.23;95184.88;5052299;28;20208;-64
2022/06/23 06:42:05;;;;;;;1999.90;999.90;;;;;;;35.48;57.19;95186.69;5069446;28;20186;-65
2022/06/23 06:44:33;;;;;;;1999.90;999.90;;;;;;;34.36;62.64;95179.75;5068969;28;20186;-64
2022/06/23 06:46:59;;;;;;;1999.90;999.90;;;;;;;34.23;63.67;95181.97;5069538;28;20214;-71
2022/06/23 06:49:28;;;;;;;1999.90;999.90;;;;;;;35.32;57.57;95190.91;5069079;28;20201;-66
2022/06/23 06:51:56;;;;;;;1999.90;999.90;;;;;;;35.44;56.48;95186.31;5053512;28;20198;-58
2022/06/23 06:54:24;;;;;;;1999.90;999.90;;;;;;;34.89;53.80;95185.47;5052105;28;20181;-59
2022/06/23 06:57:04;;;;;;;1999.90;999.90;;;;;;;35.80;53.39;95198.91;5068928;28;20200;-60
2022/06/23 06:59:42;;;;;;;1999.90;999.90;;;;;;;35.29;55.16;95195.59;5052582;28;20259;-59
2022/06/23 07:02:13;;;;;;;1999.90;999.90;;;;;;;34.81;55.64;95193.19;5052512;28;20196;-59
2022/06/23 07:04:46;;;;;;;1999.90;999.90;;;;;;;35.26;54.20;95187.47;5069521;28;20196;-58
2022/06/23 07:07:22;;;;;;;1999.90;999.90;;;;;;;34.95;54.67;95200.22;5051938;28;20193;-60
2022/06/23 07:09:57;;;;;;;1999.90;999.90;;;;;;;35.37;54.74;95190.72;5052672;28;20193;-69
2022/06/23 07:12:32;;;;;;;1999.90;999.90;;;;;;;36.81;48.47;95191.50;5052388;28;20205;-70
2022/06/23 07:15:25;;;;;;;1999.90;999.90;;;;;;;37.21;44.54;95194.22;5052250;28;20181;-69
2022/06/23 07:17:56;;;;;;;1999.90;999.90;;;;;;;36.42;49.28;95195.19;5068857;28;20246;-70
2022/06/23 07:20:34;;;;;;;1999.90;999.90;;;;;;;36.45;49.54;95191.19;5052348;28;20189;-72
2022/06/23 07:23:05;;;;;;;1999.90;999.90;;;;;;;36.66;48.03;95191.59;5072125;28;20190;-72
2022/06/23 07:25:39;;;;;;;1999.90;999.90;;;;;;;35.28;51.34;95188.41;5072643;28;20200;-64
2022/06/23 07:28:18;;;;;;;1999.90;999.90;;;;;;;34.88;52.99;95189.63;5056110;28;20188;-71
2022/06/23 07:30:57;;;;;;;1999.90;999.90;;;;;;;35.37;54.68;95192.78;5072769;28;20557;-73
2022/06/23 07:33:34;;;;;;;1999.90;999.90;;;;;;;35.55;51.08;95195.22;5055571;28;20193;-73
2022/06/23 07:36:07;;;;;;;1999.90;999.90;;;;;;;35.17;52.46;95183.13;5072064;28;20185;-72
2022/06/23 07:38:52;;;;;;;1999.90;999.90;;;;;;;35.36;51.74;95183.50;5055825;28;20216;-69
2022/06/23 07:41:33;;;;;;;1999.90;999.90;;;;;;;36.74;46.72;95183.78;5072183;28;20185;-70
2022/06/23 07:44:20;;;;;;;1999.90;999.90;;;;;;;36.14;48.79;95184.91;5072172;28;20186;-63
2022/06/23 07:46:45;;;;;;;1999.90;999.90;;;;;;;36.82;46.00;95175.94;5055535;28;20181;-61
2022/06/23 07:49:11;;;;;;;1999.90;999.90;;;;;;;37.76;41.65;95178.22;5072071;28;20182;-60
2022/06/23 07:51:37;;;;;;;1999.90;999.90;;;;;;;37.92;42.21;95182.41;5054936;28;20210;-61
2022/06/23 07:54:04;;;;;;;1999.90;999.90;;;;;;;37.50;41.11;95181.72;5072332;28;20177;-61
2022/06/23 07:56:32;;;;;;;1999.90;999.90;;;;;;;38.50;39.91;95174.97;5056071;28;20192;-61
2022/06/23 07:59:05;;;;;;;1999.90;999.90;;;;;;;38.38;40.05;95171.88;5055687;28;20190;-62
2022/06/23 08:01:36;;;;;;;1999.90;999.90;;;;;;;38.14;39.50;95169.94;5055849;28;20186;-65
2022/06/23 08:04:24;;;;;;;1999.90;999.90;;;;;;;36.46;43.40;95178.47;5072568;28;20247;-58
2022/06/23 08:06:50;;;;;;;1999.90;999.90;;;;;;;36.70;43.33;95174.13;5072160;28;20193;-58
2022/06/23 08:09:29;;;;;;;1999.90;999.90;;;;;;;36.59;44.73;95175.31;5072018;28;20256;-58
2022/06/23 08:18:18;;;;;;;1999.90;999.90;;;;;;;36.94;39.64;95165.56;5014803;28;20229;-58
2022/06/23 08:20:51;;;;;;;1999.90;999.90;;;;;;;36.49;42.76;95160.22;4998598;28;20244;-64
2022/06/23 08:23:18;;;;;;;1999.90;999.90;;;;;;;37.94;39.74;95162.56;5036236;28;20194;-65
2022/06/23 08:25:44;;;;;;;1999.90;999.90;;;;;;;36.99;41.21;95158.84;5055133;28;20178;-64
2022/06/23 08:28:10;;;;;;;1999.90;999.90;;;;;;;37.58;41.91;95159.56;5072604;28;20182;-65
2022/06/23 08:30:39;;;;;;;1999.90;999.90;;;;;;;37.42;41.13;95158.25;5071928;28;20279;-66
2022/06/23 08:33:05;;;;;;;1999.90;999.90;;;;;;;37.38;41.11;95143.66;5053714;28;20283;-64
2022/06/23 08:35:42;;;;;;;1999.90;999.90;;;;;;;37.81;38.96;95147.91;5071400;28;20182;-65
2022/06/23 08:38:22;;;;;;;1999.90;999.90;;;;;;;37.36;39.96;95143.47;5071719;28;20216;-58
2022/06/23 08:41:16;;;;;;;1999.90;999.90;;;;;;;37.50;39.36;95138.94;5054875;28;20188;-57
2022/06/23 08:43:47;;;;;;;1999.90;999.90;;;;;;;37.92;36.68;95136.75;5071339;28;20194;-57
2022/06/23 08:46:39;;;;;;;1999.90;999.90;;;;;;;36.83;39.64;95137.56;5071971;28;20189;-58
2022/06/23 08:49:25;;;;;;;1999.90;999.90;;;;;;;36.79;39.70;95137.22;5054836;28;20315;-58
2022/06/23 08:51:59;;;;;;;1999.90;999.90;;;;;;;36.62;40.22;95140.00;5071565;28;20241;-58
2022/06/23 08:54:50;;;;;;;1999.90;999.90;;;;;;;36.01;41.23;95136.06;5071530;28;20197;-58
2022/06/23 08:57:26;;;;;;;1999.90;999.90;;;;;;;37.18;38.59;95124.13;5071763;28;20186;-66
2022/06/23 09:00:03;;;;;;;1999.90;999.90;;;;;;;38.64;35.09;95131.13;5071219;28;20285;-63
2022/06/23 09:03:05;;;;;;;1999.90;999.90;;;;;;;38.92;33.18;95132.53;5071569;28;20185;-62
2022/06/23 09:05:48;;;;;;;1999.90;999.90;;;;;;;38.41;34.18;95129.94;5071048;28;20189;-63
2022/06/23 09:08:27;;;;;;;1999.90;999.90;;;;;;;37.42;34.61;95129.75;5054041;28;20174;-64
2022/06/23 09:11:05;;;;;;;1999.90;999.90;;;;;;;38.43;34.11;95128.03;5071167;28;20283;-63
2022/06/23 09:13:58;;;;;;;1999.90;999.90;;;;;;;37.18;36.23;95133.44;5070804;28;20430;-65
2022/06/23 09:16:45;;;;;;;1999.90;999.90;;;;;;;37.43;36.66;95122.69;5071207;28;20178;-69
2022/06/23 09:19:32;;;;;;;1999.90;999.90;;;;;;;38.22;35.17;95122.06;5070869;28;20192;-70
2022/06/23 09:22:12;;;;;;;1999.90;999.90;;;;;;;38.85;33.53;95114.19;5071343;28;20276;-72
2022/06/23 09:25:02;;;;;;;1999.90;999.90;;;;;;;39.18;34.14;95109.59;5070853;28;20182;-70
2022/06/23 09:27:58;;;;;;;1999.90;999.90;;;;;;;37.16;36.48;95107.63;5054612;28;20182;-70
2022/06/23 09:30:39;;;;;;;1999.90;999.90;;;;;;;37.65;36.56;95096.00;5070529;28;20380;-70
2022/06/23 09:33:04;;;;;;;1999.90;999.90;;;;;;;38.13;36.07;95084.91;5071190;28;20202;-72
2022/06/23 09:35:36;;;;;;;1999.90;999.90;;;;;;;38.17;34.70;95077.44;5070430;28;20182;-58
2022/06/23 09:38:25;;;;;;;1999.90;999.90;;;;;;;38.88;33.68;95081.56;5071031;28;20209;-59
2022/06/23 09:41:12;;;;;;;1999.90;999.90;;;;;;;38.74;34.03;95080.47;5070724;28;20189;-58
2022/06/23 09:43:48;;;;;;;1999.90;999.90;;;;;;;37.70;36.20;95079.97;5053761;28;20193;-60
2022/06/23 09:46:42;;;;;;;1999.90;999.90;;;;;;;35.31;41.87;95084.22;5070032;28;20185;-58
2022/06/23 09:49:30;;;;;;;1999.90;999.90;;;;;;;34.84;44.21;95079.25;5070322;28;20193;-58
2022/06/23 09:52:32;;;;;;;1999.90;999.90;;;;;;;37.22;39.40;95064.59;5070395;28;20213;-57
2022/06/23 09:55:20;;;;;;;1999.90;999.90;;;;;;;37.40;36.88;95064.00;5070394;28;20189;-66
2022/06/23 09:57:54;;;;;;;1999.90;999.90;;;;;;;36.90;38.81;95067.59;5070607;28;20184;-65
2022/06/23 10:00:43;;;;;;;1999.90;999.90;;;;;;;35.72;41.96;95067.34;5069852;28;20182;-65
2022/06/23 10:03:28;;;;;;;1999.90;999.90;;;;;;;35.80;42.92;95062.41;5070080;28;20196;-64
2022/06/23 10:06:15;;;;;;;1999.90;999.90;;;;;;;35.76;42.97;95066.97;5070031;28;20273;-64
2022/06/23 10:08:57;;;;;;;1999.90;999.90;;;;;;;36.58;41.98;95057.06;5070051;28;20204;-71
2022/06/23 10:11:50;;;;;;;1999.90;999.90;;;;;;;34.17;48.58;95059.41;5070488;28;20248;-71
2022/06/23 10:14:21;;;;;;;1999.90;999.90;;;;;;;34.13;51.18;95047.69;5070506;28;20193;-59
2022/06/23 10:17:03;;;;;;;1999.90;999.90;;;;;;;35.06;48.84;95052.13;5070060;28;20206;-57
2022/06/23 10:20:06;;;;;;;1999.90;999.90;;;;;;;34.81;48.04;95054.06;5070198;28;20196;-58
2022/06/23 10:23:01;;;;;;;1999.90;999.90;;;;;;;33.62;52.56;95051.38;5069886;28;20186;-58
2022/06/23 10:25:53;;;;;;;1999.90;999.90;;;;;;;35.73;46.11;95045.38;5069563;28;20217;-58
2022/06/23 10:28:35;;;;;;;1999.90;999.90;;;;;;;35.61;45.16;95055.69;5069670;28;20231;-74
2022/06/23 10:31:13;;;;;;;1999.90;999.90;;;;;;;35.46;49.08;95045.13;5053196;28;20250;-62
2022/06/23 10:33:50;;;;;;;1999.90;999.90;;;;;;;35.43;46.74;95045.56;5069593;28;20193;-62
2022/06/23 10:36:59;;;;;;;1999.90;999.90;;;;;;;34.79;44.47;95039.66;5069580;28;20285;-62
2022/06/23 10:39:43;;;;;;;1999.90;999.90;;;;;;;35.63;41.56;95041.63;5069584;28;20205;-62
2022/06/23 10:42:35;;;;;;;1999.90;999.90;;;;;;;37.21;39.13;95046.00;5069758;28;20186;-61
2022/06/23 10:45:31;;;;;;;1999.90;999.90;;;;;;;35.72;46.55;95038.19;5069657;28;20177;-61
2022/06/23 10:48:16;;;;;;;1999.90;999.90;;;;;;;34.44;51.95;95043.53;5069680;28;20194;-55
2022/06/23 10:51:06;;;;;;;1999.90;999.90;;;;;;;34.05;53.91;95035.59;5069368;28;20194;-70
2022/06/23 10:54:02;;;;;;;1999.90;999.90;;;;;;;35.55;48.61;95027.47;5069775;28;20205;-70
2022/06/23 10:56:33;;;;;;;1999.90;999.90;;;;;;;36.76;43.81;95027.28;5068413;28;20193;-72
2022/06/23 10:59:34;;;;;;;1999.90;999.90;;;;;;;36.17;45.06;95017.94;5069103;28;20253;-71
2022/06/23 11:02:38;;;;;;;1999.90;999.90;;;;;;;34.90;50.96;95027.94;5043588;28;20276;-70
2022/06/23 11:05:31;;;;;;;1999.90;999.90;;;;;;;34.40;53.83;95023.28;5069243;28;20253;-59
2022/06/23 11:08:28;;;;;;;1999.90;999.90;;;;;;;32.29;68.50;95019.75;5069645;28;20255;-63
2022/06/23 11:11:03;;;;;;;1999.90;999.90;;;;;;;32.82;67.88;95009.56;5046767;28;20189;-63
2022/06/23 11:13:56;;;;;;;1999.90;999.90;;;;;;;32.27;69.34;95008.25;5069257;28;20189;-63
2022/06/23 11:17:03;;;;;;;1999.90;999.90;;;;;;;32.64;67.75;95004.91;5069150;28;20174;-62
2022/06/23 11:19:53;;;;;;;1999.90;999.90;;;;;;;33.98;56.39;95020.09;4995775;28;20194;-63
2022/06/23 11:22:35;;;;;;;1999.90;999.90;;;;;;;34.99;50.05;95013.16;5066590;28;20208;-64
2022/06/23 11:25:15;;;;;;;1999.90;999.90;;;;;;;35.41;45.98;95014.09;5069456;28;20186;-71
2022/06/23 11:28:20;;;;;;;1999.90;999.90;;;;;;;33.31;59.27;94998.78;5068753;28;20284;-63
2022/06/23 11:31:00;;;;;;;1999.90;999.90;;;;;;;31.97;69.15;94987.50;5069332;28;20182;-63
2022/06/23 11:33:50;;;;;;;1999.90;999.90;;;;;;;31.26;71.68;94987.94;5069324;28;20181;-64
2022/06/23 11:37:05;;;;;;;1999.90;999.90;;;;;;;31.88;69.48;94983.09;5068850;28;20196;-63
2022/06/23 11:39:39;;;;;;;1999.90;999.90;;;;;;;31.98;65.82;94978.47;5055084;28;20220;-63
2022/06/23 11:42:33;;;;;;;1999.90;999.90;;;;;;;32.42;68.14;94974.44;5068517;28;20274;-56
2022/06/23 11:45:22;;;;;;;1999.90;999.90;;;;;;;33.56;61.91;94971.47;5068608;28;20243;-57
2022/06/23 11:48:19;;;;;;;1999.90;999.90;;;;;;;34.50;50.17;94979.56;5068846;28;20178;-58
2022/06/23 11:51:04;;;;;;;1999.90;999.90;;;;;;;33.99;52.05;94966.94;5069213;28;20194;-58
2022/06/23 11:54:00;;;;;;;1999.90;999.90;;;;;;;32.70;54.14;94970.81;5051755;28;20182;-57
2022/06/23 11:56:47;;;;;;;1999.90;999.90;;;;;;;32.82;56.41;94972.78;5068184;28;20190;-59